Аэропорт: Хабаровск-Новый. Хабаровск

ICAO: UHHH

METAR:
2018/07/16 19:30
UHHH 161930Z 03003MPS 9999 OVC003 19/19 Q1008 R23L/090060 BECMG 0500 FG RMK QBB100 OBST OBSC QFE750/1000
METAR:
2018/07/16 18:21
TAF TAF UHHH 161657Z 1618/1724 02003MPS 0350 FG VV002 
      TEMPO 1618/1622 VRB01MPS 0200 FG VV003 
      BECMG 1622/1623 2000 BR 
     FM170000 06003MPS 9999 SCT025CB 
      TEMPO 1700/1710 4000 -SHRA SCT006 SCT020CB